Time;durP1;ratioP1;P1;durP2;ratioP2;P2;SDS_P1;SDS_P2;PMS_P1;PMS_P2;Temp;Humidity;BMP_temperature;BMP_pressure;BME280_temperature;BME280_humidity;BME280_pressure;Samples;Min_cycle;Max_cycle;Signal;HPM_P1;HPM_P2
2021/06/23 00:00:07;;;;;;;6.18;3.53;;;;;;;18.32;100.00;96382.22;5042116;28;20055;-63
2021/06/23 00:02:36;;;;;;;5.90;4.38;;;;;;;18.47;100.00;96372.22;5043029;28;20535;-65
2021/06/23 00:05:05;;;;;;;6.18;4.90;;;;;;;18.46;100.00;96374.09;5045540;28;20052;-57
2021/06/23 00:07:34;;;;;;;6.35;5.10;;;;;;;18.49;100.00;96368.34;5043364;28;20127;-61
2021/06/23 00:10:04;;;;;;;6.68;5.40;;;;;;;18.58;100.00;96370.84;5050232;28;20080;-54
2021/06/23 00:12:34;;;;;;;8.60;5.35;;;;;;;18.61;100.00;96370.47;5050885;28;20044;-58
2021/06/23 00:15:04;;;;;;;7.10;4.85;;;;;;;18.67;100.00;96359.00;5042120;28;20064;-52
2021/06/23 00:17:43;;;;;;;4.85;4.35;;;;;;;18.41;100.00;96357.00;5047525;28;20081;-60
2021/06/23 00:20:16;;;;;;;4.78;3.78;;;;;;;18.26;100.00;96357.09;5039266;28;20073;-57
2021/06/23 00:22:45;;;;;;;4.40;3.83;;;;;;;18.33;100.00;96352.63;5051509;28;20080;-61
2021/06/23 00:25:14;;;;;;;4.63;4.03;;;;;;;18.28;100.00;96344.41;5047561;28;20040;-56
2021/06/23 00:27:44;;;;;;;5.88;4.32;;;;;;;18.35;100.00;96341.78;5042030;28;21726;-60
2021/06/23 00:30:15;;;;;;;5.03;4.25;;;;;;;18.26;100.00;96336.56;5042869;28;20072;-62
2021/06/23 00:32:45;;;;;;;5.57;4.50;;;;;;;18.28;100.00;96347.06;5044954;28;20053;-59
2021/06/23 00:35:14;;;;;;;5.60;5.10;;;;;;;18.25;100.00;96355.47;5042100;28;20045;-61
2021/06/23 00:37:43;;;;;;;7.75;5.93;;;;;;;18.06;100.00;96351.63;5046522;28;20080;-60
2021/06/23 00:40:16;;;;;;;6.28;4.70;;;;;;;18.00;100.00;96352.44;5047517;28;20091;-57
2021/06/23 00:42:47;;;;;;;4.95;4.38;;;;;;;17.99;100.00;96342.75;5047769;28;20095;-56
2021/06/23 00:45:16;;;;;;;8.77;4.65;;;;;;;18.01;100.00;96338.06;5044454;28;20079;-65
2021/06/23 00:47:46;;;;;;;7.73;4.83;;;;;;;17.95;100.00;96333.50;5033048;28;20091;-55
2021/06/23 00:50:16;;;;;;;5.50;4.65;;;;;;;17.84;100.00;96334.84;5045060;28;20970;-61
2021/06/23 00:52:45;;;;;;;5.65;4.50;;;;;;;17.91;100.00;96325.06;5059226;28;20077;-59
2021/06/23 00:55:24;;;;;;;5.90;5.30;;;;;;;17.98;100.00;96312.56;5043012;28;20091;-59
2021/06/23 00:57:56;;;;;;;5.85;4.75;;;;;;;17.77;100.00;96316.13;5043110;28;20048;-57
2021/06/23 01:00:27;;;;;;;5.22;4.65;;;;;;;17.74;100.00;96304.97;5038629;28;20094;-64
2021/06/23 01:02:56;;;;;;;4.13;3.72;;;;;;;17.61;100.00;96297.69;5042144;28;20041;-59
2021/06/23 01:05:25;;;;;;;6.47;4.95;;;;;;;17.62;100.00;96302.03;5042455;28;20061;-62
2021/06/23 01:07:55;;;;;;;5.10;4.40;;;;;;;17.60;100.00;96306.72;5044718;28;20569;-57
2021/06/23 01:10:24;;;;;;;5.60;5.10;;;;;;;17.69;100.00;96308.25;5050765;28;20040;-58
2021/06/23 01:13:09;;;;;;;5.75;5.13;;;;;;;17.65;100.00;96306.13;5045573;28;20515;-58
2021/06/23 01:15:40;;;;;;;5.95;4.78;;;;;;;17.63;100.00;96302.84;5044836;28;20095;-53
2021/06/23 01:18:08;;;;;;;;;;;;;;;17.65;100.00;96306.97;5056349;28;20045;-61
2021/06/23 01:20:42;;;;;;;4.68;4.28;;;;;;;17.50;100.00;96295.56;5049286;28;19959;-55
2021/06/23 01:23:12;;;;;;;5.45;4.95;;;;;;;17.43;100.00;96303.50;5045475;28;20565;-56
2021/06/23 01:25:41;;;;;;;5.53;4.82;;;;;;;17.49;100.00;96304.56;5042142;28;20083;-50
2021/06/23 01:28:09;;;;;;;6.05;4.72;;;;;;;17.33;100.00;96297.66;5049656;28;20065;-58
2021/06/23 01:30:38;;;;;;;5.30;4.28;;;;;;;17.44;100.00;96301.63;5044422;28;20424;-53
2021/06/23 01:33:08;;;;;;;5.05;4.55;;;;;;;17.34;100.00;96296.63;5044939;28;20041;-59
2021/06/23 01:35:37;;;;;;;6.80;5.15;;;;;;;17.34;100.00;96293.97;5043863;28;20075;-54
2021/06/23 01:38:05;;;;;;;6.10;4.63;;;;;;;17.21;100.00;96301.84;5035230;28;20065;-54
2021/06/23 01:40:35;;;;;;;6.05;4.60;;;;;;;17.32;100.00;96288.00;5025209;28;20436;-61
2021/06/23 01:43:03;;;;;;;5.70;4.45;;;;;;;17.36;100.00;96299.13;5026643;28;20092;-60
2021/06/23 01:45:31;;;;;;;6.72;4.65;;;;;;;17.33;100.00;96298.47;5042069;28;20542;-60
2021/06/23 01:48:00;;;;;;;5.70;4.72;;;;;;;17.48;100.00;96287.75;5049035;28;20072;-57
2021/06/23 01:50:28;;;;;;;6.45;4.57;;;;;;;17.32;100.00;96296.84;5049521;28;20072;-52
2021/06/23 01:52:57;;;;;;;6.40;5.22;;;;;;;17.29;100.00;96291.06;5043703;28;20067;-56
2021/06/23 01:55:28;;;;;;;5.43;4.90;;;;;;;17.37;100.00;96298.09;5052344;28;20087;-59
2021/06/23 01:58:06;;;;;;;7.28;4.82;;;;;;;17.24;100.00;96296.97;5044145;28;20543;-52
2021/06/23 02:00:41;;;;;;;6.10;4.90;;;;;;;17.26;100.00;96294.91;5047178;28;20068;-55
2021/06/23 02:03:17;;;;;;;4.90;4.25;;;;;;;17.27;100.00;96291.25;5043861;28;20100;-56
2021/06/23 02:06:03;;;;;;;8.00;4.55;;;;;;;17.32;100.00;96290.69;5048988;28;20078;-57
2021/06/23 02:08:40;;;;;;;5.32;4.63;;;;;;;17.25;100.00;96290.63;5047769;28;20061;-59
2021/06/23 02:11:15;;;;;;;5.35;4.72;;;;;;;17.40;100.00;96295.06;5048088;28;20083;-57
2021/06/23 02:14:04;;;;;;;5.88;5.22;;;;;;;17.28;100.00;96298.22;5046497;28;20089;-56
2021/06/23 02:16:34;;;;;;;6.82;5.50;;;;;;;17.47;100.00;96304.75;5043941;28;20714;-51
2021/06/23 02:19:04;;;;;;;6.55;5.00;;;;;;;17.41;100.00;96315.34;5047378;28;20077;-55
2021/06/23 02:21:36;;;;;;;6.65;5.28;;;;;;;17.48;100.00;96325.09;5051927;28;20075;-56
2021/06/23 02:24:06;;;;;;;5.88;5.28;;;;;;;17.40;100.00;96319.84;5045399;28;20749;-54
2021/06/23 02:26:34;;;;;;;5.60;5.10;;;;;;;17.71;100.00;96329.38;5052960;28;20053;-53
2021/06/23 02:29:05;;;;;;;5.95;5.45;;;;;;;17.56;100.00;96329.44;5046624;28;20109;-56
2021/06/23 02:31:37;;;;;;;6.85;5.90;;;;;;;17.70;100.00;96341.06;5047584;28;20087;-54
2021/06/23 02:34:08;;;;;;;6.35;5.40;;;;;;;17.68;100.00;96332.41;5049285;28;20096;-54
2021/06/23 02:36:37;;;;;;;7.53;5.75;;;;;;;17.70;100.00;96330.38;5041259;28;20057;-48
2021/06/23 02:39:06;;;;;;;6.35;5.50;;;;;;;17.66;100.00;96331.78;5048849;28;20064;-48
2021/06/23 02:41:35;;;;;;;6.53;5.93;;;;;;;17.62;100.00;96335.84;5048190;28;20060;-52
2021/06/23 02:44:06;;;;;;;7.20;5.85;;;;;;;17.61;100.00;96343.03;5044911;28;20068;-48
2021/06/23 02:46:34;;;;;;;9.45;6.68;;;;;;;17.89;100.00;96347.59;5042423;28;20084;-52
2021/06/23 02:49:04;;;;;;;7.80;7.00;;;;;;;17.73;100.00;96346.00;5046395;28;20553;-50
2021/06/23 02:51:39;;;;;;;8.35;7.40;;;;;;;17.74;100.00;96353.00;5045999;28;20091;-48
2021/06/23 02:54:08;;;;;;;9.00;8.10;;;;;;;17.90;100.00;96358.09;5048666;28;20075;-48
2021/06/23 02:56:37;;;;;;;12.38;9.30;;;;;;;17.87;100.00;96354.97;5042407;28;20065;-47
2021/06/23 02:59:07;;;;;;;10.20;9.20;;;;;;;17.87;100.00;96347.81;5051532;28;20076;-56
2021/06/23 03:01:36;;;;;;;11.43;10.25;;;;;;;17.87;100.00;96365.66;5048086;28;20083;-51
2021/06/23 03:04:04;;;;;;;11.32;9.93;;;;;;;17.84;100.00;96363.38;5049890;28;20073;-50
2021/06/23 03:06:36;;;;;;;14.60;11.30;;;;;;;17.92;100.00;96372.03;5045021;28;20065;-47
2021/06/23 03:09:05;;;;;;;14.80;12.40;;;;;;;18.10;100.00;96384.09;5048233;28;20510;-49
2021/06/23 03:11:34;;;;;;;14.50;12.35;;;;;;;18.08;100.00;96383.47;5043188;28;20116;-50
2021/06/23 03:14:03;;;;;;;15.18;13.57;;;;;;;17.95;100.00;96384.19;5040414;28;20076;-50
2021/06/23 03:16:33;;;;;;;16.38;13.43;;;;;;;17.99;100.00;96380.91;5022200;28;20061;-47
2021/06/23 03:19:01;;;;;;;17.27;14.25;;;;;;;18.12;100.00;96382.06;5054102;28;20076;-45
2021/06/23 03:21:30;;;;;;;17.92;14.68;;;;;;;18.27;100.00;96388.97;5043788;28;20060;-45
2021/06/23 03:23:58;;;;;;;18.40;14.35;;;;;;;18.24;100.00;96400.03;5045548;28;20060;-47
2021/06/23 03:26:28;;;;;;;20.23;14.50;;;;;;;18.22;100.00;96401.22;5049918;28;20148;-48
2021/06/23 03:28:57;;;;;;;20.20;14.15;;;;;;;18.38;100.00;96400.13;5041859;28;20568;-47
2021/06/23 03:31:26;;;;;;;17.80;14.30;;;;;;;18.48;100.00;96400.59;5023376;28;20527;-50
2021/06/23 03:33:55;;;;;;;16.48;13.43;;;;;;;18.58;100.00;96402.91;5043178;28;20068;-47
2021/06/23 03:36:24;;;;;;;21.77;15.68;;;;;;;18.55;100.00;96409.50;5048829;28;20080;-46
2021/06/23 03:38:52;;;;;;;22.52;15.48;;;;;;;18.53;100.00;96419.53;5048360;28;20444;-46
2021/06/23 03:41:20;;;;;;;20.27;16.05;;;;;;;18.48;100.00;96425.47;5046278;28;20060;-46
2021/06/23 03:43:49;;;;;;;23.52;18.35;;;;;;;18.50;100.00;96423.41;5044491;28;20083;-46
2021/06/23 03:46:17;;;;;;;29.35;19.75;;;;;;;18.57;100.00;96428.78;5046420;28;20107;-46
2021/06/23 03:48:45;;;;;;;28.05;20.33;;;;;;;18.55;100.00;96438.88;5042773;28;20068;-46
2021/06/23 03:51:15;;;;;;;30.70;21.70;;;;;;;18.69;100.00;96445.13;5050700;28;20072;-50
2021/06/23 03:53:43;;;;;;;28.77;22.63;;;;;;;18.57;100.00;96442.16;5046754;28;20487;-47
2021/06/23 03:56:12;;;;;;;28.05;23.52;;;;;;;18.76;100.00;96447.88;5043810;28;20068;-53
2021/06/23 03:58:41;;;;;;;32.90;24.20;;;;;;;18.90;100.00;96447.72;5046727;28;20080;-55
2021/06/23 04:01:10;;;;;;;33.53;25.50;;;;;;;19.01;100.00;96442.84;5051568;28;20151;-49
2021/06/23 04:03:39;;;;;;;34.90;26.02;;;;;;;19.04;100.00;96445.13;5048061;28;20905;-57
2021/06/23 04:06:08;;;;;;;34.67;27.33;;;;;;;19.28;100.00;96441.13;5043692;28;20069;-57
2021/06/23 04:08:37;;;;;;;34.17;27.60;;;;;;;19.20;100.00;96440.28;5047270;28;20065;-53
2021/06/23 04:11:05;;;;;;;34.45;28.25;;;;;;;19.17;100.00;96438.00;5045111;28;21258;-53
2021/06/23 04:13:34;;;;;;;34.72;28.38;;;;;;;19.11;100.00;96444.13;5043752;28;20080;-51
2021/06/23 04:16:02;;;;;;;39.78;29.92;;;;;;;18.95;100.00;96439.94;5047930;28;20076;-55
2021/06/23 04:18:30;;;;;;;37.90;29.08;;;;;;;19.07;100.00;96439.41;5049293;28;20073;-51
2021/06/23 04:20:58;;;;;;;38.55;30.00;;;;;;;19.29;100.00;96448.13;5049016;28;20065;-54
2021/06/23 04:23:27;;;;;;;38.83;28.90;;;;;;;19.25;100.00;96444.19;5045111;28;20052;-55
2021/06/23 04:25:56;;;;;;;34.35;28.63;;;;;;;19.14;100.00;96434.91;5049697;28;20088;-52
2021/06/23 04:28:25;;;;;;;35.10;28.42;;;;;;;19.35;100.00;96434.78;5044046;28;20081;-53
2021/06/23 04:30:53;;;;;;;35.67;28.60;;;;;;;19.32;100.00;96432.50;5047731;28;20074;-55
2021/06/23 04:33:22;;;;;;;34.95;27.90;;;;;;;19.38;100.00;96433.56;5049214;28;20056;-52
2021/06/23 04:35:51;;;;;;;34.72;28.42;;;;;;;19.45;100.00;96431.72;5044531;28;20065;-58
2021/06/23 04:38:19;;;;;;;32.83;27.77;;;;;;;19.39;100.00;96432.53;5041328;28;20452;-59
2021/06/23 04:40:48;;;;;;;29.70;25.63;;;;;;;19.56;100.00;96428.47;5035566;28;20486;-60
2021/06/23 04:43:18;;;;;;;29.75;25.70;;;;;;;19.89;100.00;96430.44;5028042;28;20111;-54
2021/06/23 04:45:46;;;;;;;30.08;25.88;;;;;;;20.50;100.00;96426.72;5019066;28;20065;-54
2021/06/23 04:48:14;;;;;;;26.45;23.63;;;;;;;20.96;100.00;96418.63;5043707;28;20056;-49
2021/06/23 04:50:43;;;;;;;27.67;24.13;;;;;;;20.86;100.00;96418.25;5028317;28;20073;-55
2021/06/23 04:53:11;;;;;;;26.40;23.52;;;;;;;20.49;100.00;96422.41;5020502;28;20037;-59
2021/06/23 04:55:40;;;;;;;29.25;23.65;;;;;;;21.63;100.00;96415.69;5021481;28;20085;-53
2021/06/23 04:58:08;;;;;;;22.77;20.48;;;;;;;21.74;100.00;96415.81;5026543;28;20107;-52
2021/06/23 05:00:38;;;;;;;23.85;21.25;;;;;;;21.77;100.00;96412.69;5017076;28;20552;-54
2021/06/23 05:03:06;;;;;;;21.38;19.17;;;;;;;21.58;100.00;96413.66;5036443;28;20068;-55
2021/06/23 05:05:35;;;;;;;21.25;18.98;;;;;;;21.84;100.00;96418.03;5038165;28;20061;-55
2021/06/23 05:08:03;;;;;;;20.17;18.08;;;;;;;21.75;100.00;96422.03;5045755;28;20065;-51
2021/06/23 05:10:32;;;;;;;22.45;19.80;;;;;;;21.92;100.00;96417.78;5041508;28;20797;-51
2021/06/23 05:13:00;;;;;;;21.42;19.35;;;;;;;21.96;100.00;96424.34;5054827;28;20099;-53
2021/06/23 05:15:29;;;;;;;22.33;20.02;;;;;;;21.86;100.00;96429.38;5039989;28;20060;-56
2021/06/23 05:17:59;;;;;;;22.60;20.13;;;;;;;22.18;100.00;96429.38;5047427;28;20593;-48
2021/06/23 05:20:27;;;;;;;21.75;18.98;;;;;;;21.85;100.00;96432.25;5045922;28;20075;-54
2021/06/23 05:22:56;;;;;;;21.02;18.88;;;;;;;21.59;100.00;96435.94;5045852;28;20096;-51
2021/06/23 05:25:25;;;;;;;22.75;20.27;;;;;;;21.41;100.00;96431.28;5045498;28;20103;-55
2021/06/23 05:27:53;;;;;;;22.55;18.35;;;;;;;21.06;100.00;96440.47;5047197;28;20068;-61
2021/06/23 05:30:22;;;;;;;21.65;19.45;;;;;;;21.25;100.00;96445.97;5044412;28;20072;-55
2021/06/23 05:32:51;;;;;;;20.95;18.83;;;;;;;21.27;100.00;96447.41;5037250;28;20101;-49
2021/06/23 05:35:21;;;;;;;21.42;19.08;;;;;;;21.07;100.00;96452.81;5049700;28;20467;-55
2021/06/23 05:37:50;;;;;;;20.77;18.65;;;;;;;20.92;100.00;96459.44;5040918;28;20720;-52
2021/06/23 05:40:18;;;;;;;20.17;18.20;;;;;;;21.25;100.00;96451.31;5046569;28;20526;-57
2021/06/23 05:42:47;;;;;;;20.35;18.20;;;;;;;21.57;100.00;96449.56;5046443;28;20080;-50
2021/06/23 05:45:15;;;;;;;19.23;17.33;;;;;;;21.99;100.00;96444.59;5044101;28;20118;-57
2021/06/23 05:47:44;;;;;;;18.05;16.25;;;;;;;22.73;100.00;96442.97;5046424;28;20056;-54
2021/06/23 05:50:12;;;;;;;16.42;14.93;;;;;;;22.84;100.00;96442.22;5045365;28;20064;-53
2021/06/23 05:52:42;;;;;;;15.65;13.90;;;;;;;23.71;100.00;96433.19;5042357;28;20091;-50
2021/06/23 05:55:12;;;;;;;14.80;13.30;;;;;;;23.16;100.00;96442.16;5044894;28;20636;-52
2021/06/23 05:57:40;;;;;;;14.63;13.27;;;;;;;23.75;100.00;96432.53;5040366;28;20069;-52
2021/06/23 06:00:10;;;;;;;13.77;12.55;;;;;;;23.52;100.00;96433.19;5046789;28;20057;-54
2021/06/23 06:02:38;;;;;;;;;;;;;;;24.52;100.00;96431.78;5046946;28;20072;-52
2021/06/23 06:05:07;;;;;;;12.77;11.57;;;;;;;24.47;100.00;96429.78;5045912;28;19967;-55
2021/06/23 06:07:36;;;;;;;12.70;11.50;;;;;;;24.37;100.00;96430.34;5049218;28;20077;-53
2021/06/23 06:10:06;;;;;;;11.52;10.43;;;;;;;23.72;100.00;96432.16;5050171;28;20073;-50
2021/06/23 06:12:35;;;;;;;9.95;9.05;;;;;;;23.82;100.00;96440.50;5045826;28;20076;-50
2021/06/23 06:15:04;;;;;;;11.30;10.10;;;;;;;23.34;100.00;96444.81;5043842;28;20069;-50
2021/06/23 06:17:32;;;;;;;10.60;9.60;;;;;;;23.21;100.00;96453.03;5042061;28;20076;-53
2021/06/23 06:20:01;;;;;;;11.18;10.13;;;;;;;22.63;100.00;96450.72;5036285;28;20073;-55
2021/06/23 06:22:29;;;;;;;10.95;9.90;;;;;;;23.14;100.00;96446.91;5047758;28;20095;-54
2021/06/23 06:24:59;;;;;;;6.75;6.00;;;;;;;22.97;100.00;96452.06;5041756;28;21525;-54
2021/06/23 06:27:29;;;;;;;6.75;6.15;;;;;;;22.88;100.00;96453.34;5039306;28;20068;-50
2021/06/23 06:29:57;;;;;;;5.90;5.30;;;;;;;23.60;100.00;96446.34;5047685;28;20526;-51
2021/06/23 06:32:26;;;;;;;6.20;5.60;;;;;;;24.26;100.00;96443.78;5046293;28;20060;-54
2021/06/23 06:34:54;;;;;;;6.43;5.82;;;;;;;24.21;100.00;96459.81;5049533;28;20064;-49
2021/06/23 06:37:22;;;;;;;6.35;5.72;;;;;;;24.24;100.00;96451.28;5050108;28;20522;-52
2021/06/23 06:39:50;;;;;;;5.47;4.97;;;;;;;24.74;100.00;96451.75;5042139;28;20065;-51
2021/06/23 06:42:19;;;;;;;5.40;4.90;;;;;;;24.64;100.00;96451.50;5045198;28;20061;-54
2021/06/23 06:44:48;;;;;;;5.53;5.13;;;;;;;24.51;100.00;96443.63;5041276;28;20076;-56
2021/06/23 06:47:17;;;;;;;6.70;6.10;;;;;;;24.88;100.00;96455.03;5047715;28;20072;-56
2021/06/23 06:49:45;;;;;;;6.40;5.78;;;;;;;24.95;100.00;96455.72;5049092;28;20085;-52
2021/06/23 06:52:14;;;;;;;6.30;5.70;;;;;;;24.69;100.00;96456.19;5050421;28;20099;-59
2021/06/23 06:54:42;;;;;;;7.07;5.70;;;;;;;24.38;100.00;96458.09;5046701;28;20427;-59
2021/06/23 06:57:10;;;;;;;6.97;5.55;;;;;;;23.72;100.00;96461.78;5051693;28;20159;-58
2021/06/23 06:59:56;;;;;;;5.85;5.25;;;;;;;24.54;100.00;96470.13;5046889;28;20064;-58
2021/06/23 07:02:25;;;;;;;5.93;5.43;;;;;;;25.21;100.00;96469.78;5046764;28;20048;-51
2021/06/23 07:04:53;;;;;;;7.20;6.50;;;;;;;24.61;100.00;96466.25;5048828;28;20061;-56
2021/06/23 07:07:21;;;;;;;7.63;6.32;;;;;;;24.67;100.00;96469.88;5049736;28;20079;-52
2021/06/23 07:09:50;;;;;;;6.65;6.05;;;;;;;24.56;100.00;96468.81;5046906;28;20053;-53
2021/06/23 07:12:18;;;;;;;7.15;6.45;;;;;;;24.21;100.00;96465.22;5048169;28;20079;-53
2021/06/23 07:14:46;;;;;;;6.32;5.72;;;;;;;24.15;100.00;96464.25;5044498;28;20064;-55
2021/06/23 07:17:16;;;;;;;7.50;6.90;;;;;;;23.97;100.00;96467.03;5048003;28;20445;-50
2021/06/23 07:19:44;;;;;;;6.90;6.20;;;;;;;23.88;100.00;96461.13;5048773;28;20499;-55
2021/06/23 07:22:13;;;;;;;7.10;6.40;;;;;;;24.05;100.00;96461.28;5046038;28;20089;-49
2021/06/23 07:24:41;;;;;;;5.88;5.38;;;;;;;23.92;100.00;96460.44;5050198;28;20611;-53
2021/06/23 07:27:09;;;;;;;6.70;6.00;;;;;;;23.86;100.00;96468.63;5047072;28;20067;-49
2021/06/23 07:29:38;;;;;;;6.65;6.05;;;;;;;24.04;100.00;96468.56;5050979;28;20069;-56
2021/06/23 07:32:09;;;;;;;7.30;6.65;;;;;;;24.11;100.00;96465.78;5047074;28;20109;-56
2021/06/23 07:37:23;;;;;;;8.95;6.70;;;;;;;25.42;100.00;96450.25;5052593;28;20496;-53
2021/06/23 07:39:53;;;;;;;7.05;6.35;;;;;;;25.78;100.00;96449.09;5048560;28;20065;-52
2021/06/23 07:42:21;;;;;;;7.10;6.50;;;;;;;25.89;100.00;96452.00;5026580;28;20057;-55
2021/06/23 07:44:52;;;;;;;9.25;7.43;;;;;;;26.17;100.00;96451.97;5021274;28;20068;-54
2021/06/23 07:47:23;;;;;;;9.27;8.38;;;;;;;25.71;100.00;96455.69;5021761;28;20610;-57
2021/06/23 07:49:53;;;;;;;8.95;8.10;;;;;;;25.49;100.00;96450.13;5028719;28;20049;-54
2021/06/23 07:55:12;;;;;;;9.40;8.45;;;;;;;24.45;100.00;96452.63;5047082;28;20543;-52
2021/06/23 08:08:55;;;;;;;9.10;8.27;;;;;;;24.37;100.00;96448.38;5037631;28;20091;-60
2021/06/23 08:11:27;;;;;;;9.68;8.30;;;;;;;24.26;100.00;96443.78;5050170;28;20087;-58
2021/06/23 08:13:55;;;;;;;9.40;8.60;;;;;;;24.18;100.00;96447.63;5044196;28;20056;-57
2021/06/23 08:16:23;;;;;;;9.57;8.68;;;;;;;24.84;100.00;96438.47;5051421;28;20045;-56
2021/06/23 08:18:52;;;;;;;9.40;8.50;;;;;;;24.39;100.00;96448.97;5048724;28;20537;-57
2021/06/23 08:21:22;;;;;;;9.40;8.50;;;;;;;24.66;100.00;96449.38;5046339;28;20068;-54
2021/06/23 08:23:50;;;;;;;9.40;8.50;;;;;;;24.87;100.00;96443.38;5047469;28;20064;-55
2021/06/23 08:26:19;;;;;;;9.27;8.48;;;;;;;24.92;100.00;96449.97;5037585;28;20669;-52
2021/06/23 08:28:47;;;;;;;9.15;8.35;;;;;;;25.19;100.00;96453.00;5045536;28;20088;-59
2021/06/23 08:31:16;;;;;;;9.85;8.95;;;;;;;24.42;100.00;96448.53;5052875;28;20076;-55
2021/06/23 08:33:44;;;;;;;9.23;8.32;;;;;;;24.52;100.00;96447.97;5023082;28;20472;-55
2021/06/23 08:36:13;;;;;;;8.98;8.13;;;;;;;24.67;100.00;96451.00;5036769;28;21279;-52
2021/06/23 08:38:42;;;;;;;8.10;7.22;;;;;;;23.93;100.00;96450.50;5034174;28;20527;-55
2021/06/23 08:41:11;;;;;;;7.57;6.70;;;;;;;24.54;100.00;96451.25;5019484;28;20519;-54
2021/06/23 08:43:39;;;;;;;8.68;7.88;;;;;;;25.59;100.00;96447.63;5019356;28;20112;-56
2021/06/23 08:46:08;;;;;;;8.52;7.82;;;;;;;25.28;100.00;96441.59;5022894;28;20084;-52
2021/06/23 08:48:37;;;;;;;7.95;7.25;;;;;;;24.77;100.00;96447.72;5036206;28;20064;-58
2021/06/23 08:51:06;;;;;;;7.55;6.68;;;;;;;25.79;100.00;96441.81;5044137;28;20072;-53
2021/06/23 08:53:35;;;;;;;7.78;6.53;;;;;;;25.23;100.00;96435.28;5044894;28;20060;-56
2021/06/23 08:56:07;;;;;;;7.25;6.10;;;;;;;26.10;100.00;96436.97;5040250;28;20087;-52
2021/06/23 08:58:35;;;;;;;5.95;5.38;;;;;;;26.61;100.00;96438.69;5024165;28;20516;-57
2021/06/23 09:01:04;;;;;;;8.18;6.25;;;;;;;25.18;100.00;96444.09;5046753;28;20084;-49
2021/06/23 09:04:00;;;;;;;6.45;5.95;;;;;;;25.22;100.00;96439.84;5038566;28;20067;-57
2021/06/23 09:06:57;;;;;;;7.00;6.30;;;;;;;26.15;100.00;96434.34;5042993;28;20433;-56
2021/06/23 09:09:27;;;;;;;7.60;6.90;;;;;;;26.52;100.00;96434.75;5010895;28;20060;-53
2021/06/23 09:11:58;;;;;;;7.82;6.90;;;;;;;26.62;100.00;96437.59;5043922;28;20061;-57
2021/06/23 09:14:28;;;;;;;7.38;6.75;;;;;;;26.33;100.00;96436.03;5046858;28;20069;-55
2021/06/23 09:17:10;;;;;;;7.43;6.72;;;;;;;26.31;100.00;96438.16;5043331;28;20076;-58
2021/06/23 09:19:55;;;;;;;7.57;6.55;;;;;;;26.30;100.00;96429.22;5039339;28;20072;-59
2021/06/23 09:22:35;;;;;;;7.50;6.70;;;;;;;26.67;100.00;96432.28;5050828;28;20045;-55
2021/06/23 09:25:22;;;;;;;7.45;6.63;;;;;;;26.49;100.00;96437.94;5038982;28;21555;-54
2021/06/23 09:27:54;;;;;;;7.03;6.30;;;;;;;26.75;100.00;96431.84;5043562;28;20073;-56
2021/06/23 09:30:28;;;;;;;7.88;6.35;;;;;;;26.73;100.00;96422.34;5039230;28;20052;-50
2021/06/23 09:33:11;;;;;;;9.50;8.70;;;;;;;27.41;98.74;96428.44;5049605;28;20039;-57
2021/06/23 09:35:42;;;;;;;10.43;9.23;;;;;;;27.01;100.00;96431.41;5040430;28;20073;-49
2021/06/23 09:38:33;;;;;;;11.20;9.77;;;;;;;26.80;100.00;96431.09;5046125;28;20529;-54
2021/06/23 09:41:01;;;;;;;11.38;10.27;;;;;;;27.31;100.00;96428.31;5045065;28;20064;-54
2021/06/23 09:43:41;;;;;;;9.88;8.98;;;;;;;27.50;100.00;96426.94;5050767;28;20076;-55
2021/06/23 09:46:18;;;;;;;11.25;9.40;;;;;;;26.99;100.00;96427.06;5037109;28;20060;-53
2021/06/23 09:48:46;;;;;;;11.27;10.20;;;;;;;26.74;100.00;96432.94;5044522;28;20068;-54
2021/06/23 09:51:16;;;;;;;11.02;9.80;;;;;;;27.27;100.00;96422.59;5043402;28;20068;-49
2021/06/23 09:53:44;;;;;;;;;;;;;;;26.97;100.00;96426.47;5041407;28;20081;-55
2021/06/23 09:56:31;;;;;;;10.23;9.32;;;;;;;25.76;100.00;96429.59;5043480;28;20684;-49
2021/06/23 09:59:01;;;;;;;10.02;9.02;;;;;;;26.64;100.00;96424.66;5041939;28;20072;-50
2021/06/23 10:01:30;;;;;;;9.82;8.82;;;;;;;26.92;100.00;96423.72;5051383;28;20076;-53
2021/06/23 10:04:01;;;;;;;9.57;8.68;;;;;;;27.28;100.00;96416.09;5047771;28;20069;-51
2021/06/23 10:06:31;;;;;;;10.05;9.10;;;;;;;27.33;100.00;96423.47;5043159;28;20068;-55
2021/06/23 10:09:19;;;;;;;9.13;8.32;;;;;;;26.68;100.00;96423.09;5052398;28;20061;-53
2021/06/23 10:11:48;;;;;;;8.95;7.55;;;;;;;26.63;100.00;96428.41;5046729;28;20065;-60
2021/06/23 10:14:18;;;;;;;7.63;6.90;;;;;;;25.92;100.00;96419.94;5052132;28;20061;-59
2021/06/23 10:16:48;;;;;;;8.35;7.55;;;;;;;26.78;95.35;96425.13;5051309;28;20080;-48
2021/06/23 10:19:17;;;;;;;8.05;7.25;;;;;;;26.54;99.12;96410.97;5049934;28;20083;-53
2021/06/23 10:21:46;;;;;;;7.87;7.17;;;;;;;26.99;100.00;96418.13;5048477;28;20076;-52
2021/06/23 10:24:16;;;;;;;9.77;8.03;;;;;;;26.65;97.18;96415.47;5051049;28;20064;-51
2021/06/23 10:26:46;;;;;;;;;;;;;;;26.81;97.78;96416.53;5047267;28;20037;-55
2021/06/23 10:29:16;;;;;;;7.18;6.47;;;;;;;26.63;99.79;96409.47;5049202;28;20032;-54
2021/06/23 10:31:47;;;;;;;7.78;7.00;;;;;;;26.31;100.00;96413.81;5048972;28;20554;-51
2021/06/23 10:34:18;;;;;;;7.10;6.40;;;;;;;26.26;91.42;96409.97;5047038;28;20084;-54
2021/06/23 10:36:48;;;;;;;6.60;5.90;;;;;;;26.44;90.57;96410.78;5052024;28;20069;-55
2021/06/23 10:39:17;;;;;;;8.15;6.05;;;;;;;26.66;87.79;96406.28;5045718;28;20065;-48
2021/06/23 10:41:47;;;;;;;8.10;6.33;;;;;;;25.77;100.00;96406.09;5044156;28;20072;-50
2021/06/23 10:44:21;;;;;;;6.53;5.93;;;;;;;27.58;78.45;96401.28;5048029;28;20480;-49
2021/06/23 10:46:53;;;;;;;6.53;5.93;;;;;;;26.67;76.85;96405.22;5043282;28;20077;-50
2021/06/23 10:49:44;;;;;;;6.13;5.57;;;;;;;27.92;75.48;96397.31;5045149;28;20123;-50
2021/06/23 10:52:34;;;;;;;6.18;5.57;;;;;;;28.58;74.86;96396.28;5044830;28;20437;-49
2021/06/23 10:55:08;;;;;;;7.22;6.43;;;;;;;27.34;77.43;96393.41;5047778;28;21426;-51
2021/06/23 10:57:42;;;;;;;7.75;6.95;;;;;;;28.73;77.92;96387.41;5045742;28;20159;-51
2021/06/23 11:00:30;;;;;;;6.30;5.70;;;;;;;29.66;63.27;96381.34;5031715;28;20061;-54
2021/06/23 11:03:07;;;;;;;7.10;6.50;;;;;;;28.89;70.24;96381.00;5041498;28;20094;-49
2021/06/23 11:05:41;;;;;;;6.88;6.28;;;;;;;28.33;73.31;96381.41;5046638;28;20641;-55
2021/06/23 11:08:25;;;;;;;8.90;6.45;;;;;;;27.38;72.34;96386.41;5049033;28;20154;-53
2021/06/23 11:10:55;;;;;;;7.95;7.15;;;;;;;27.18;86.60;96391.59;5061708;28;20122;-54
2021/06/23 11:13:25;;;;;;;7.60;6.65;;;;;;;27.39;75.12;96387.22;5051347;28;20087;-50
2021/06/23 11:15:54;;;;;;;7.82;7.10;;;;;;;28.17;77.13;96385.06;5047351;28;20069;-58
2021/06/23 11:18:31;;;;;;;8.02;7.22;;;;;;;27.52;79.99;96392.25;5056148;28;20056;-49
2021/06/23 11:21:01;;;;;;;7.32;6.38;;;;;;;26.37;91.08;96388.50;5046754;28;20065;-48
2021/06/23 11:23:53;;;;;;;6.50;5.90;;;;;;;26.74;80.98;96392.34;5049385;28;20487;-58
2021/06/23 11:26:56;;;;;;;7.00;6.38;;;;;;;28.50;72.67;96385.91;5046102;28;20080;-50
2021/06/23 11:29:36;;;;;;;7.72;7.03;;;;;;;28.19;82.25;96390.25;5047831;28;20069;-51
2021/06/23 11:32:09;;;;;;;7.70;7.00;;;;;;;27.53;92.44;96391.22;5046651;28;20076;-48
2021/06/23 11:34:56;;;;;;;7.68;6.95;;;;;;;27.44;77.47;96382.69;5046948;28;20175;-54
2021/06/23 11:37:29;;;;;;;9.40;7.63;;;;;;;27.42;90.56;96382.13;5050700;28;20088;-55
2021/06/23 11:40:17;;;;;;;7.57;6.88;;;;;;;27.25;81.79;96372.44;5046527;28;20294;-50
2021/06/23 11:42:46;;;;;;;7.40;6.43;;;;;;;27.98;72.37;96370.25;5040256;28;20466;-47
2021/06/23 11:45:17;;;;;;;6.82;6.10;;;;;;;28.46;72.45;96369.34;5048844;28;20071;-50
2021/06/23 11:47:45;;;;;;;6.88;5.88;;;;;;;28.38;75.15;96367.91;5044979;28;20076;-51
2021/06/23 11:50:15;;;;;;;7.03;6.32;;;;;;;27.97;81.11;96374.88;5050961;28;20084;-50
2021/06/23 11:52:44;;;;;;;7.35;6.57;;;;;;;27.88;78.35;96373.72;5042646;28;20107;-53
2021/06/23 11:55:23;;;;;;;6.72;6.13;;;;;;;28.09;75.30;96369.28;5045947;28;20084;-50